createdAt,value
2023-10-13T00:01:13.527Z,4.68
2023-10-13T00:03:44.749Z,5.40
2023-10-13T00:06:12.314Z,4.32
2023-10-13T00:08:40.822Z,4.17
2023-10-13T00:11:11.050Z,3.92
2023-10-13T00:13:50.741Z,3.72
2023-10-13T00:16:30.015Z,4.05
2023-10-13T00:19:00.591Z,4.80
2023-10-13T00:21:34.051Z,4.25
2023-10-13T00:24:13.578Z,3.83
2023-10-13T00:26:44.409Z,4.38
2023-10-13T00:29:17.483Z,3.80
2023-10-13T00:31:49.550Z,3.50
2023-10-13T00:34:26.146Z,3.50
2023-10-13T00:37:13.031Z,3.45
2023-10-13T00:39:46.924Z,3.30
2023-10-13T00:42:25.553Z,3.33
2023-10-13T00:44:56.003Z,3.35
2023-10-13T00:47:44.057Z,3.33
2023-10-13T00:50:16.210Z,3.90
2023-10-13T00:52:48.140Z,3.72
2023-10-13T00:55:18.538Z,3.70
2023-10-13T00:57:48.434Z,3.22
2023-10-13T01:00:26.416Z,3.83
2023-10-13T01:02:57.680Z,3.40
2023-10-13T01:05:26.782Z,3.47
2023-10-13T01:07:56.118Z,2.78
2023-10-13T01:10:33.695Z,2.50
2023-10-13T01:13:03.714Z,3.00
2023-10-13T01:15:34.216Z,2.30
2023-10-13T01:18:15.421Z,2.45
2023-10-13T01:20:53.792Z,2.25
2023-10-13T01:23:25.702Z,2.10
2023-10-13T01:25:55.205Z,1.80
2023-10-13T01:28:23.309Z,1.30
2023-10-13T01:30:54.410Z,1.07
2023-10-13T01:33:28.822Z,1.33
2023-10-13T01:36:08.179Z,1.10
2023-10-13T01:38:37.392Z,0.90
2023-10-13T01:41:06.998Z,1.15
2023-10-13T01:43:36.132Z,0.88
2023-10-13T01:46:04.775Z,1.25
2023-10-13T01:48:40.043Z,1.00
2023-10-13T01:51:11.155Z,1.20
2023-10-13T01:53:39.323Z,1.00
2023-10-13T01:56:11.465Z,1.05
2023-10-13T01:58:43.536Z,1.20
2023-10-13T02:01:12.465Z,1.50
2023-10-13T02:03:47.381Z,1.17
2023-10-13T02:06:18.685Z,1.10
2023-10-13T02:08:48.810Z,0.98
2023-10-13T02:11:20.213Z,1.27
2023-10-13T02:13:54.892Z,1.10
2023-10-13T02:16:23.886Z,1.17
2023-10-13T02:18:54.390Z,1.20
2023-10-13T02:21:22.733Z,1.88
2023-10-13T02:24:05.164Z,1.58
2023-10-13T02:26:32.995Z,1.73
2023-10-13T02:29:05.606Z,1.95
2023-10-13T02:31:33.135Z,2.00
2023-10-13T02:34:01.706Z,1.90
2023-10-13T02:36:48.289Z,2.28
2023-10-13T02:39:26.277Z,2.47
2023-10-13T02:41:59.497Z,2.88
2023-10-13T02:44:33.010Z,2.95
2023-10-13T02:47:00.983Z,3.20
2023-10-13T02:49:32.576Z,3.00
2023-10-13T02:52:06.347Z,3.10
2023-10-13T02:54:40.735Z,2.95
2023-10-13T02:57:08.503Z,3.78
2023-10-13T02:59:40.233Z,3.60
2023-10-13T03:02:30.981Z,3.88
2023-10-13T03:05:00.870Z,4.05
2023-10-13T03:07:32.291Z,4.30
2023-10-13T03:10:02.418Z,4.40
2023-10-13T03:12:34.875Z,4.32
2023-10-13T03:15:31.089Z,4.15
2023-10-13T03:18:02.615Z,4.30
2023-10-13T03:20:33.116Z,4.40
2023-10-13T03:23:00.972Z,3.97
2023-10-13T03:25:38.115Z,3.47
2023-10-13T03:28:06.394Z,2.90
2023-10-13T03:30:37.286Z,3.05
2023-10-13T03:33:15.275Z,2.53
2023-10-13T03:35:43.626Z,2.00
2023-10-13T03:40:58.221Z,2.42
2023-10-13T03:43:26.076Z,2.33
2023-10-13T03:46:02.267Z,1.88
2023-10-13T03:48:30.463Z,1.90
2023-10-13T03:51:03.794Z,2.10
2023-10-13T03:53:56.851Z,1.88
2023-10-13T03:56:30.949Z,1.80
2023-10-13T03:59:07.395Z,2.03
2023-10-13T04:01:44.730Z,1.38
2023-10-13T04:04:13.380Z,1.30
2023-10-13T04:06:46.890Z,1.52
2023-10-13T04:09:30.317Z,1.55
2023-10-13T04:12:04.862Z,1.20
2023-10-13T04:14:54.257Z,1.00
2023-10-13T04:17:27.238Z,1.40
2023-10-13T04:20:07.991Z,0.90
2023-10-13T04:22:50.016Z,1.10
2023-10-13T04:25:38.915Z,1.10
2023-10-13T04:28:17.369Z,1.00
2023-10-13T04:30:57.302Z,0.90
2023-10-13T04:33:49.259Z,1.23
2023-10-13T04:36:33.563Z,1.17
2023-10-13T04:39:06.818Z,1.15
2023-10-13T04:41:46.163Z,1.40
2023-10-13T04:44:36.091Z,1.00
2023-10-13T04:47:03.748Z,1.05
2023-10-13T04:49:44.129Z,1.40
2023-10-13T04:52:12.415Z,1.30
2023-10-13T04:54:47.035Z,1.10
2023-10-13T04:57:37.013Z,1.35
2023-10-13T05:00:11.574Z,1.10
2023-10-13T05:02:40.245Z,1.20
2023-10-13T05:05:14.813Z,1.23
2023-10-13T05:08:04.430Z,1.00
2023-10-13T05:10:51.219Z,1.10
2023-10-13T05:13:38.092Z,1.10
2023-10-13T05:16:24.890Z,1.30
2023-10-13T05:19:10.998Z,1.30
2023-10-13T05:22:12.211Z,1.35
2023-10-13T05:24:58.398Z,1.00
2023-10-13T05:27:50.045Z,1.33
2023-10-13T05:30:36.222Z,1.30
2023-10-13T05:33:34.354Z,1.20
2023-10-13T05:39:06.673Z,1.27
2023-10-13T05:41:52.811Z,1.20
2023-10-13T05:44:38.948Z,1.50
2023-10-13T05:47:25.473Z,1.10
2023-10-13T05:50:06.778Z,1.35
2023-10-13T05:52:53.360Z,1.27
2023-10-13T05:55:39.503Z,1.38
2023-10-13T05:58:26.066Z,1.50
2023-10-13T06:01:13.792Z,1.17
2023-10-13T06:04:00.185Z,1.58
2023-10-13T06:06:46.799Z,1.20
2023-10-13T06:09:33.379Z,1.20
2023-10-13T06:12:19.673Z,1.08
2023-10-13T06:15:06.695Z,1.25
2023-10-13T06:17:53.193Z,1.05
2023-10-13T06:20:39.904Z,1.30
2023-10-13T06:23:32.339Z,1.20
2023-10-13T06:26:18.585Z,1.17
2023-10-13T06:28:47.496Z,1.02
2023-10-13T06:31:24.363Z,0.98
2023-10-13T06:33:53.154Z,0.98
2023-10-13T06:36:20.834Z,0.82
2023-10-13T06:38:57.075Z,1.00
2023-10-13T06:41:33.918Z,1.00
2023-10-13T06:44:16.387Z,1.10
2023-10-13T06:46:45.223Z,1.20
2023-10-13T06:49:14.917Z,1.00
2023-10-13T06:51:42.582Z,1.20
2023-10-13T06:54:13.168Z,1.13
2023-10-13T06:56:43.736Z,1.00
2023-10-13T06:59:11.372Z,1.00
2023-10-13T07:01:47.991Z,0.80
2023-10-13T07:04:15.776Z,1.20
2023-10-13T07:06:49.114Z,1.10
2023-10-13T07:09:40.828Z,1.08
2023-10-13T07:12:17.588Z,1.00
2023-10-13T07:14:53.525Z,0.80
2023-10-13T07:17:25.076Z,1.00
2023-10-13T07:19:57.795Z,0.93
2023-10-13T07:22:29.028Z,1.00
2023-10-13T07:24:59.402Z,0.60
2023-10-13T07:27:27.042Z,0.73
2023-10-13T07:30:27.850Z,0.80
2023-10-13T07:32:59.194Z,0.80
2023-10-13T07:35:28.076Z,0.70
2023-10-13T07:37:56.171Z,0.70
2023-10-13T07:40:44.376Z,0.70
2023-10-13T07:45:41.857Z,0.50
2023-10-13T07:48:22.235Z,0.40
2023-10-13T07:51:02.602Z,0.40
2023-10-13T07:53:35.753Z,0.52
2023-10-13T07:56:06.460Z,0.57
2023-10-13T07:58:34.254Z,0.50
2023-10-13T08:01:08.261Z,0.50
2023-10-13T08:03:44.765Z,0.50
2023-10-13T08:06:13.335Z,0.50
2023-10-13T08:08:41.093Z,0.50
2023-10-13T08:11:13.315Z,0.63
2023-10-13T08:14:01.786Z,1.08
2023-10-13T08:16:55.512Z,1.63
2023-10-13T08:19:41.640Z,1.60
2023-10-13T08:22:20.217Z,1.70
2023-10-13T08:24:48.860Z,1.80
2023-10-13T08:27:17.177Z,1.70
2023-10-13T08:29:57.607Z,1.10
2023-10-13T08:32:29.859Z,1.45
2023-10-13T08:35:01.473Z,1.60
2023-10-13T08:37:33.711Z,1.10
2023-10-13T08:42:42.341Z,0.93
2023-10-13T08:45:42.048Z,1.10
2023-10-13T08:48:13.895Z,1.13
2023-10-13T08:50:53.773Z,1.10
2023-10-13T08:53:27.936Z,1.30
2023-10-13T08:56:07.454Z,1.40
2023-10-13T08:58:55.909Z,1.50
2023-10-13T09:01:50.115Z,1.50
2023-10-13T09:04:47.931Z,1.60
2023-10-13T09:07:23.545Z,1.60
2023-10-13T09:09:52.188Z,1.45
2023-10-13T09:12:21.797Z,1.65
2023-10-13T09:14:59.259Z,1.40
2023-10-13T09:17:37.253Z,1.90
2023-10-13T09:20:24.510Z,1.83
2023-10-13T09:23:05.118Z,1.10
2023-10-13T09:25:37.091Z,1.15
2023-10-13T09:28:20.081Z,1.00
2023-10-13T09:30:48.451Z,1.48
2023-10-13T09:33:29.577Z,2.28
2023-10-13T09:36:05.909Z,3.70
2023-10-13T09:38:37.580Z,4.85
2023-10-13T09:41:19.458Z,5.18
2023-10-13T09:43:47.641Z,5.75
2023-10-13T09:46:20.240Z,5.50
2023-10-13T09:48:49.072Z,4.93
2023-10-13T09:51:21.162Z,3.80
2023-10-13T09:54:21.777Z,3.55
2023-10-13T09:56:54.226Z,2.35
2023-10-13T09:59:26.460Z,1.90
2023-10-13T10:02:01.635Z,1.63
2023-10-13T10:04:30.414Z,1.30
2023-10-13T10:06:58.704Z,0.90
2023-10-13T10:09:37.903Z,0.90
2023-10-13T10:12:05.613Z,0.50
2023-10-13T10:14:38.329Z,0.60
2023-10-13T10:17:09.571Z,0.50
2023-10-13T10:19:50.081Z,0.30
2023-10-13T10:22:37.739Z,0.20
2023-10-13T10:25:25.526Z,0.40
2023-10-13T10:28:00.085Z,0.38
2023-10-13T10:30:27.601Z,0.30
2023-10-13T10:33:00.677Z,0.30
2023-10-13T10:35:33.883Z,0.32
2023-10-13T10:38:46.899Z,0.30
2023-10-13T10:41:14.946Z,0.50
2023-10-13T10:43:46.919Z,0.40
2023-10-13T10:46:18.288Z,0.40
2023-10-13T10:48:49.235Z,0.20
2023-10-13T10:51:22.484Z,0.20
2023-10-13T10:53:52.003Z,0.30
2023-10-13T10:56:27.237Z,0.20
2023-10-13T10:58:59.101Z,0.20
2023-10-13T11:01:35.395Z,0.17
2023-10-13T11:04:17.289Z,0.20
2023-10-13T11:06:49.147Z,0.17
2023-10-13T11:09:20.004Z,0.13
2023-10-13T11:11:53.762Z,0.20
2023-10-13T11:14:28.166Z,0.10
2023-10-13T11:16:56.835Z,0.20
2023-10-13T11:19:36.455Z,0.10
2023-10-13T11:22:30.800Z,0.10
2023-10-13T11:25:01.726Z,0.20
2023-10-13T11:27:45.668Z,0.10
2023-10-13T11:30:32.431Z,0.15
2023-10-13T11:33:07.475Z,0.10
2023-10-13T11:35:57.040Z,0.10
2023-10-13T11:38:29.298Z,0.28
2023-10-13T11:41:07.722Z,0.20
2023-10-13T11:43:45.659Z,0.20
2023-10-13T11:46:17.752Z,0.20
2023-10-13T11:48:47.951Z,0.20
2023-10-13T11:51:25.340Z,0.30
2023-10-13T11:53:53.292Z,0.20
2023-10-13T11:56:23.846Z,0.30
2023-10-13T11:58:52.166Z,0.30
2023-10-13T12:04:07.402Z,0.40
2023-10-13T12:06:38.337Z,0.30
2023-10-13T12:09:32.690Z,0.40
2023-10-13T12:12:02.260Z,0.45
2023-10-13T12:14:32.163Z,0.45
2023-10-13T12:17:05.101Z,0.30
2023-10-13T12:19:33.101Z,0.20
2023-10-13T12:22:09.485Z,0.20
2023-10-13T12:24:37.155Z,0.10
2023-10-13T12:27:20.028Z,0.20
2023-10-13T12:29:48.553Z,0.30
2023-10-13T12:34:58.411Z,0.10
2023-10-13T12:37:45.118Z,0.20
2023-10-13T12:40:39.510Z,0.20
2023-10-13T12:43:26.149Z,0.20
2023-10-13T12:46:13.094Z,0.10
2023-10-13T12:51:32.890Z,0.17
2023-10-13T12:54:05.995Z,0.20
2023-10-13T12:56:33.945Z,0.20
2023-10-13T12:59:01.547Z,0.20
2023-10-13T13:01:43.423Z,0.20
2023-10-13T13:04:13.673Z,0.13
2023-10-13T13:06:41.525Z,0.20
2023-10-13T13:09:11.747Z,0.30
2023-10-13T13:11:42.702Z,0.30
2023-10-13T13:14:10.729Z,0.40
2023-10-13T13:16:41.760Z,0.35
2023-10-13T13:19:19.629Z,0.40
2023-10-13T13:21:47.149Z,0.73
2023-10-13T13:24:15.300Z,0.30
2023-10-13T13:26:43.057Z,0.30
2023-10-13T13:29:10.784Z,0.30
2023-10-13T13:31:43.072Z,2.10
2023-10-13T13:34:11.063Z,1.55
2023-10-13T13:36:39.253Z,1.20
2023-10-13T13:39:07.576Z,0.98
2023-10-13T13:41:35.191Z,0.60
2023-10-13T13:44:14.670Z,0.57
2023-10-13T13:46:42.927Z,0.50
2023-10-13T13:49:19.101Z,0.40
2023-10-13T13:51:53.121Z,0.50
2023-10-13T13:54:28.022Z,0.77
2023-10-13T13:56:55.454Z,0.63
2023-10-13T13:59:23.094Z,0.57
2023-10-13T14:01:53.421Z,0.68
2023-10-13T14:04:21.720Z,0.52
2023-10-13T14:09:17.977Z,0.57
2023-10-13T14:12:04.177Z,0.60
2023-10-13T14:14:34.968Z,0.63
2023-10-13T14:17:08.784Z,0.40
2023-10-13T14:19:42.303Z,0.40
2023-10-13T14:22:13.449Z,0.40
2023-10-13T14:24:45.899Z,0.40
2023-10-13T14:27:15.535Z,0.30
2023-10-13T14:29:46.142Z,0.50
2023-10-13T14:32:16.280Z,0.50
2023-10-13T14:34:45.467Z,0.63
2023-10-13T14:37:22.413Z,0.50
2023-10-13T14:39:49.878Z,0.68
2023-10-13T14:42:18.646Z,0.50
2023-10-13T14:44:46.183Z,0.75
2023-10-13T14:47:14.085Z,1.27
2023-10-13T14:49:42.271Z,0.60
2023-10-13T14:52:12.709Z,0.90
2023-10-13T14:54:40.770Z,1.10
2023-10-13T14:57:08.277Z,0.87
2023-10-13T14:59:39.934Z,0.95
2023-10-13T15:02:08.278Z,0.90
2023-10-13T15:04:36.008Z,0.70
2023-10-13T15:07:04.038Z,1.00
2023-10-13T15:09:32.073Z,0.90
2023-10-13T15:11:59.536Z,1.00
2023-10-13T15:14:26.878Z,1.13
2023-10-13T15:16:54.590Z,1.05
2023-10-13T15:19:22.227Z,0.80
2023-10-13T15:21:54.197Z,0.98
2023-10-13T15:24:27.115Z,0.75
2023-10-13T15:27:09.622Z,0.95
2023-10-13T15:29:37.998Z,1.48
2023-10-13T15:32:26.917Z,1.50
2023-10-13T15:34:55.564Z,1.35
2023-10-13T15:37:26.728Z,1.17
2023-10-13T15:39:55.263Z,1.55
2023-10-13T15:42:22.782Z,1.20
2023-10-13T15:44:51.362Z,1.27
2023-10-13T15:49:49.866Z,1.70
2023-10-13T15:52:17.570Z,1.97
2023-10-13T15:54:45.512Z,2.20
2023-10-13T15:57:17.765Z,1.80
2023-10-13T15:59:47.639Z,2.40
2023-10-13T16:02:18.295Z,1.98
2023-10-13T16:04:46.412Z,1.80
2023-10-13T16:07:14.309Z,2.83
2023-10-13T16:09:41.807Z,3.03
2023-10-13T16:12:12.167Z,2.97
2023-10-13T16:14:41.027Z,2.75
2023-10-13T16:17:10.149Z,2.58
2023-10-13T16:19:38.141Z,2.00
2023-10-13T16:22:05.865Z,2.05
2023-10-13T16:24:35.066Z,1.27
2023-10-13T16:27:02.531Z,2.25
2023-10-13T16:29:32.970Z,1.40
2023-10-13T16:32:00.950Z,1.33
2023-10-13T16:35:00.234Z,1.20
2023-10-13T16:37:27.927Z,1.45
2023-10-13T16:39:56.077Z,1.13
2023-10-13T16:42:23.755Z,1.00
2023-10-13T16:44:51.270Z,1.00
2023-10-13T16:47:36.160Z,1.17
2023-10-13T16:50:04.445Z,1.15
2023-10-13T16:52:33.701Z,1.35
2023-10-13T16:55:01.291Z,1.27
2023-10-13T16:57:28.991Z,1.57
2023-10-13T16:59:56.531Z,1.77
2023-10-13T17:02:24.749Z,1.10
2023-10-13T17:04:52.591Z,1.00
2023-10-13T17:07:20.103Z,1.33
2023-10-13T17:09:47.651Z,1.35
2023-10-13T17:12:15.161Z,1.00
2023-10-13T17:14:42.755Z,1.20
2023-10-13T17:17:10.274Z,1.52
2023-10-13T17:19:37.812Z,2.72
2023-10-13T17:22:05.367Z,3.15
2023-10-13T17:24:33.006Z,1.90
2023-10-13T17:27:05.637Z,1.60
2023-10-13T17:29:36.892Z,1.30
2023-10-13T17:32:05.422Z,2.35
2023-10-13T17:37:01.673Z,1.83
2023-10-13T17:39:29.164Z,2.17
2023-10-13T17:41:56.798Z,2.10
2023-10-13T17:44:25.126Z,2.03
2023-10-13T17:46:53.873Z,1.90
2023-10-13T17:49:21.422Z,1.40
2023-10-13T17:51:48.903Z,1.92
2023-10-13T17:54:16.444Z,1.88
2023-10-13T17:56:43.990Z,1.83
2023-10-13T17:59:13.728Z,2.17
2023-10-13T18:01:41.649Z,2.08
2023-10-13T18:04:13.128Z,1.63
2023-10-13T18:06:43.951Z,1.45
2023-10-13T18:09:14.750Z,1.65
2023-10-13T18:11:46.940Z,1.40
2023-10-13T18:14:17.165Z,2.05
2023-10-13T18:16:50.786Z,1.95
2023-10-13T18:19:22.215Z,1.70
2023-10-13T18:21:49.924Z,1.45
2023-10-13T18:24:19.165Z,1.87
2023-10-13T18:26:46.643Z,1.65
2023-10-13T18:29:14.206Z,1.70
2023-10-13T18:31:42.446Z,1.35
2023-10-13T18:34:10.084Z,1.80
2023-10-13T18:36:38.846Z,1.52
2023-10-13T18:39:11.064Z,1.83
2023-10-13T18:41:39.055Z,1.80
2023-10-13T18:44:10.869Z,1.65
2023-10-13T18:46:38.924Z,2.03
2023-10-13T18:49:07.008Z,1.88
2023-10-13T18:51:34.548Z,1.50
2023-10-13T18:54:06.350Z,1.40
2023-10-13T18:56:36.438Z,2.33
2023-10-13T18:59:04.216Z,1.85
2023-10-13T19:01:35.866Z,1.67
2023-10-13T19:04:13.211Z,1.48
2023-10-13T19:06:41.772Z,1.63
2023-10-13T19:11:37.960Z,1.58
2023-10-13T19:14:13.546Z,1.90
2023-10-13T19:16:51.739Z,2.13
2023-10-13T19:21:54.354Z,1.40
2023-10-13T19:24:22.755Z,1.10
2023-10-13T19:26:50.221Z,1.30
2023-10-13T19:29:19.331Z,1.33
2023-10-13T19:31:47.003Z,1.30
2023-10-13T19:34:18.824Z,1.37
2023-10-13T19:36:46.455Z,1.48
2023-10-13T19:39:20.423Z,1.47
2023-10-13T19:41:48.141Z,1.20
2023-10-13T19:44:15.736Z,1.40
2023-10-13T19:46:43.365Z,1.77
2023-10-13T19:49:11.375Z,1.37
2023-10-13T19:51:38.984Z,1.50
2023-10-13T19:54:06.695Z,1.17
2023-10-13T19:56:34.455Z,1.50
2023-10-13T19:59:05.210Z,1.30
2023-10-13T20:01:35.469Z,1.65
2023-10-13T20:04:08.897Z,1.58
2023-10-13T20:06:37.080Z,1.25
2023-10-13T20:09:25.543Z,1.67
2023-10-13T20:14:24.259Z,1.20
2023-10-13T20:16:52.285Z,1.80
2023-10-13T20:19:22.367Z,1.63
2023-10-13T20:21:50.167Z,1.58
2023-10-13T20:24:17.854Z,1.50
2023-10-13T20:26:47.020Z,1.60
2023-10-13T20:29:18.462Z,1.40
2023-10-13T20:31:48.971Z,1.42
2023-10-13T20:34:20.753Z,1.17
2023-10-13T20:36:48.810Z,1.58
2023-10-13T20:39:25.728Z,1.10
2023-10-13T20:41:54.393Z,1.00
2023-10-13T20:46:50.938Z,1.10
2023-10-13T20:49:18.574Z,0.90
2023-10-13T20:51:47.751Z,1.17
2023-10-13T20:54:15.385Z,1.13
2023-10-13T20:56:45.359Z,1.00
2023-10-13T20:59:15.826Z,0.98
2023-10-13T21:01:46.654Z,1.25
2023-10-13T21:04:14.296Z,1.00
2023-10-13T21:06:45.960Z,0.70
2023-10-13T21:09:21.686Z,0.93
2023-10-13T21:11:49.597Z,0.70
2023-10-13T21:14:17.207Z,0.98
2023-10-13T21:16:44.787Z,0.80
2023-10-13T21:19:12.354Z,0.90
2023-10-13T21:21:41.556Z,0.80
2023-10-13T21:24:12.322Z,0.82
2023-10-13T21:26:40.179Z,1.33
2023-10-13T21:29:10.741Z,1.00
2023-10-13T21:31:38.559Z,0.98
2023-10-13T21:34:10.369Z,1.15
2023-10-13T21:36:38.392Z,1.05
2023-10-13T21:39:09.464Z,0.70
2023-10-13T21:41:39.291Z,0.55
2023-10-13T21:44:07.833Z,0.87
2023-10-13T21:46:37.115Z,0.70
2023-10-13T21:49:08.222Z,0.70
2023-10-13T21:51:36.979Z,0.80
2023-10-13T21:54:09.055Z,0.90
2023-10-13T21:56:37.111Z,0.90
2023-10-13T21:59:04.621Z,0.90
2023-10-13T22:01:34.924Z,1.10
2023-10-13T22:04:22.229Z,1.00
2023-10-13T22:06:52.208Z,0.75
2023-10-13T22:09:22.610Z,1.17
2023-10-13T22:11:56.626Z,0.93
2023-10-13T22:14:24.171Z,1.10
2023-10-13T22:16:52.717Z,1.13
2023-10-13T22:21:53.525Z,0.68
2023-10-13T22:24:22.119Z,1.23
2023-10-13T22:26:49.889Z,0.95
2023-10-13T22:29:18.416Z,1.23
2023-10-13T22:34:15.580Z,1.35
2023-10-13T22:36:51.942Z,1.75
2023-10-13T22:39:34.660Z,1.13
2023-10-13T22:42:02.616Z,1.23
2023-10-13T22:44:30.180Z,1.10
2023-10-13T22:46:57.768Z,1.05
2023-10-13T22:49:25.949Z,1.13
2023-10-13T22:51:54.761Z,1.15
2023-10-13T22:54:22.463Z,1.10
2023-10-13T22:56:53.848Z,1.33
2023-10-13T22:59:24.911Z,1.58
2023-10-13T23:01:52.510Z,1.25
2023-10-13T23:04:23.692Z,1.13
2023-10-13T23:06:51.841Z,1.10
2023-10-13T23:11:57.791Z,1.40
2023-10-13T23:14:26.698Z,1.40
2023-10-13T23:16:54.722Z,1.30
2023-10-13T23:19:25.369Z,1.00
2023-10-13T23:21:53.651Z,1.20
2023-10-13T23:24:23.968Z,1.27
2023-10-13T23:26:51.537Z,1.70
2023-10-13T23:29:21.964Z,1.45
2023-10-13T23:31:49.735Z,1.40
2023-10-13T23:34:18.033Z,1.07
2023-10-13T23:36:45.966Z,1.98
2023-10-13T23:39:13.522Z,2.25
2023-10-13T23:41:44.209Z,1.83
2023-10-13T23:44:15.135Z,1.60
2023-10-13T23:46:46.825Z,1.35
2023-10-13T23:49:21.007Z,1.20
2023-10-13T23:51:55.067Z,1.33
2023-10-13T23:54:22.875Z,1.67
2023-10-13T23:56:50.568Z,1.90
2023-10-13T23:59:41.213Z,2.03
